Time;durP1;ratioP1;P1;durP2;ratioP2;P2;SDS_P1;SDS_P2;PMS_P1;PMS_P2;Temp;Humidity;BMP_temperature;BMP_pressure;BME280_temperature;BME280_humidity;BME280_pressure;Samples;Min_cycle;Max_cycle;Signal;HPM_P1;HPM_P2
2024/01/20 00:01:30;;;;;;;39.22;21.38;;;;;;;-1.98;100.00;102645.56;5091772;28;20134;-78
2024/01/20 00:03:55;;;;;;;38.03;21.50;;;;;;;-1.98;100.00;102645.56;5073276;28;20028;-78
2024/01/20 00:06:20;;;;;;;33.30;20.63;;;;;;;-2.03;100.00;102639.50;5091555;28;20026;-78
2024/01/20 00:08:46;;;;;;;40.28;21.38;;;;;;;-2.07;100.00;102640.44;5092203;28;20071;-78
2024/01/20 00:11:11;;;;;;;34.22;20.92;;;;;;;-2.08;100.00;102646.53;5091611;28;20020;-79
2024/01/20 00:13:36;;;;;;;37.92;21.20;;;;;;;-2.08;100.00;102647.38;5090999;28;20092;-77
2024/01/20 00:16:02;;;;;;;32.97;21.00;;;;;;;-2.11;100.00;102647.41;5073220;28;20036;-78
2024/01/20 00:18:28;;;;;;;38.80;21.33;;;;;;;-2.10;100.00;102646.53;5091408;28;20079;-79
2024/01/20 00:20:53;;;;;;;36.95;22.60;;;;;;;-2.09;100.00;102650.00;5091586;28;20127;-78
2024/01/20 00:23:18;;;;;;;44.90;23.20;;;;;;;-2.09;100.00;102652.59;5091476;28;20309;-78
2024/01/20 00:25:44;;;;;;;43.63;22.08;;;;;;;-2.11;100.00;102657.84;5091566;28;20499;-78
2024/01/20 00:28:09;;;;;;;39.88;22.20;;;;;;;-2.10;100.00;102656.97;5073412;28;20453;-78
2024/01/20 00:30:34;;;;;;;39.13;22.98;;;;;;;-2.05;100.00;102657.78;5091793;28;20395;-78
2024/01/20 00:33:00;;;;;;;44.70;23.52;;;;;;;-2.00;100.00;102668.16;5091694;28;20059;-78
2024/01/20 00:35:26;;;;;;;46.47;24.73;;;;;;;-1.97;100.00;102650.75;5073333;28;20079;-81
2024/01/20 00:37:51;;;;;;;40.15;24.10;;;;;;;-1.91;100.00;102657.69;5091231;28;20081;-78
2024/01/20 00:40:17;;;;;;;41.70;23.38;;;;;;;-1.87;100.00;102656.75;5072989;28;20504;-77
2024/01/20 00:42:42;;;;;;;35.22;22.42;;;;;;;-1.93;100.00;102656.81;5091440;28;20107;-77
2024/01/20 00:45:07;;;;;;;35.75;22.23;;;;;;;-1.96;100.00;102659.44;5091213;28;20032;-78
2024/01/20 00:47:34;;;;;;;38.58;22.35;;;;;;;-1.95;100.00;102658.56;5090956;28;20081;-78
2024/01/20 00:49:59;;;;;;;39.05;22.70;;;;;;;-2.00;100.00;102666.44;5091063;28;20452;-78
2024/01/20 00:52:25;;;;;;;33.88;21.27;;;;;;;-2.01;100.00;102654.28;5076447;28;20072;-77
2024/01/20 00:54:51;;;;;;;44.03;22.95;;;;;;;-2.03;100.00;102656.03;5095061;28;20040;-77
2024/01/20 00:57:16;;;;;;;33.30;21.58;;;;;;;-2.04;100.00;102661.28;5094649;28;20152;-78
2024/01/20 00:59:41;;;;;;;37.70;23.20;;;;;;;-2.08;100.00;102657.81;5094781;28;20100;-77
2024/01/20 01:02:07;;;;;;;38.33;22.75;;;;;;;-2.08;100.00;102660.41;5094683;28;20031;-77
2024/01/20 01:04:32;;;;;;;43.15;22.92;;;;;;;-2.02;100.00;102659.50;5094027;28;20359;-77
2024/01/20 01:06:58;;;;;;;42.80;22.25;;;;;;;-2.03;100.00;102657.75;5095102;28;20024;-77
2024/01/20 01:09:23;;;;;;;36.15;21.65;;;;;;;-2.06;100.00;102663.91;5094685;28;20028;-76
2024/01/20 01:11:48;;;;;;;39.90;22.98;;;;;;;-2.11;100.00;102662.19;5094621;28;20035;-78
2024/01/20 01:14:14;;;;;;;37.65;22.10;;;;;;;-2.20;100.00;102677.03;5094155;28;20020;-77
2024/01/20 01:16:39;;;;;;;42.33;23.75;;;;;;;-2.23;100.00;102677.06;5094498;28;20050;-77
2024/01/20 01:19:04;;;;;;;38.22;23.42;;;;;;;-2.24;100.00;102672.75;5094620;28;20115;-78
2024/01/20 01:21:30;;;;;;;46.97;25.77;;;;;;;-2.33;100.00;102670.16;5075872;28;20448;-78
2024/01/20 01:23:55;;;;;;;41.78;23.73;;;;;;;-2.37;100.00;102676.31;5094841;28;20059;-78
2024/01/20 01:26:22;;;;;;;42.25;23.23;;;;;;;-2.38;100.00;102671.97;5094648;28;20440;-78
2024/01/20 01:28:47;;;;;;;45.97;24.15;;;;;;;-2.42;100.00;102667.63;5094377;28;20035;-78
2024/01/20 01:31:13;;;;;;;40.95;23.10;;;;;;;-2.45;100.00;102675.47;5094554;28;20028;-78
2024/01/20 01:33:38;;;;;;;40.40;22.90;;;;;;;-2.51;100.00;102669.44;5094168;28;20460;-79
2024/01/20 01:36:04;;;;;;;42.92;24.58;;;;;;;-2.53;100.00;102667.72;5094207;28;20070;-78
2024/01/20 01:38:29;;;;;;;39.50;24.73;;;;;;;-2.55;100.00;102674.69;5094305;28;20124;-78
2024/01/20 01:40:55;;;;;;;46.53;24.95;;;;;;;-2.54;100.00;102669.47;5093985;28;20414;-77
2024/01/20 01:43:20;;;;;;;43.92;24.33;;;;;;;-2.54;100.00;102679.00;5075432;28;20028;-77
2024/01/20 01:45:45;;;;;;;38.60;23.10;;;;;;;-2.55;100.00;102672.09;5093670;28;20071;-77
2024/01/20 01:48:11;;;;;;;46.67;24.95;;;;;;;-2.55;100.00;102672.94;5094137;28;20032;-77
2024/01/20 01:50:36;;;;;;;43.35;24.23;;;;;;;-2.54;100.00;102677.28;5093938;28;20032;-77
2024/01/20 01:53:04;;;;;;;44.58;25.05;;;;;;;-2.49;100.00;102672.03;5093909;28;20036;-76
2024/01/20 01:55:30;;;;;;;43.00;24.58;;;;;;;-2.51;100.00;102674.66;5093742;28;20044;-76
2024/01/20 01:57:56;;;;;;;44.30;24.13;;;;;;;-2.51;100.00;102676.38;5093591;28;20491;-76
2024/01/20 02:00:22;;;;;;;45.45;24.42;;;;;;;-2.55;100.00;102674.69;5093370;28;20486;-76
2024/01/20 02:02:47;;;;;;;43.90;24.35;;;;;;;-2.55;100.00;102678.16;5093253;28;20114;-77
2024/01/20 02:05:13;;;;;;;46.35;24.23;;;;;;;-2.56;100.00;102678.16;5093485;28;20104;-77
2024/01/20 02:07:40;;;;;;;44.92;25.65;;;;;;;-2.59;100.00;102684.25;5093692;28;20046;-77
2024/01/20 02:10:09;;;;;;;58.17;25.35;;;;;;;-2.60;100.00;102682.50;5093807;28;20031;-75
2024/01/20 02:12:35;;;;;;;43.78;26.20;;;;;;;-2.62;100.00;102684.28;5093526;28;20024;-77
2024/01/20 02:15:01;;;;;;;56.30;25.80;;;;;;;-2.55;100.00;102680.75;5093760;28;20085;-77
2024/01/20 02:17:26;;;;;;;47.85;25.20;;;;;;;-2.49;100.00;102682.47;5075407;28;20349;-77
2024/01/20 02:19:52;;;;;;;52.40;25.77;;;;;;;-2.46;100.00;102681.56;5093270;28;20059;-77
2024/01/20 02:22:17;;;;;;;48.53;26.30;;;;;;;-2.42;100.00;102675.47;5093083;28;20452;-77
2024/01/20 02:24:49;;;;;;;45.92;24.65;;;;;;;-2.42;100.00;102676.31;5092819;28;20366;-78
2024/01/20 02:27:18;;;;;;;49.97;25.15;;;;;;;-2.45;100.00;102683.31;5093302;28;20443;-78
2024/01/20 02:29:44;;;;;;;45.72;24.23;;;;;;;-2.47;100.00;102685.06;5092891;28;20084;-78
2024/01/20 02:32:09;;;;;;;50.33;25.17;;;;;;;-2.49;100.00;102691.16;5093445;28;20106;-78
2024/01/20 02:34:37;;;;;;;50.60;25.45;;;;;;;-2.46;100.00;102694.59;5093031;28;20036;-77
2024/01/20 02:37:04;;;;;;;48.08;25.38;;;;;;;-2.45;100.00;102696.34;5092575;28;20463;-78
2024/01/20 02:39:29;;;;;;;51.63;27.05;;;;;;;-2.43;100.00;102689.34;5092838;28;20043;-77
2024/01/20 02:41:54;;;;;;;49.00;25.75;;;;;;;-2.45;100.00;102693.72;5092428;28;20032;-78
2024/01/20 02:44:19;;;;;;;54.25;25.52;;;;;;;-2.48;100.00;102699.81;5093005;28;20112;-78
2024/01/20 02:46:45;;;;;;;49.03;25.10;;;;;;;-2.48;100.00;102699.81;5092222;28;20107;-79
2024/01/20 02:49:10;;;;;;;47.95;25.35;;;;;;;-2.49;100.00;102704.19;5092565;28;20474;-78
2024/01/20 02:51:36;;;;;;;56.50;26.17;;;;;;;-2.47;100.00;102705.94;5093597;28;20448;-78
2024/01/20 02:54:01;;;;;;;50.50;25.63;;;;;;;-2.48;100.00;102702.44;5075022;28;20111;-78
2024/01/20 02:56:27;;;;;;;50.75;25.58;;;;;;;-2.43;100.00;102705.00;5093008;28;20379;-77
2024/01/20 02:58:52;;;;;;;55.25;26.38;;;;;;;-2.42;100.00;102707.59;5093033;28;20024;-78
2024/01/20 03:01:18;;;;;;;57.40;25.48;;;;;;;-2.40;100.00;102711.09;5074869;28;20081;-77
2024/01/20 03:03:44;;;;;;;54.38;25.45;;;;;;;-2.36;100.00;102711.91;5074474;28;20027;-77
2024/01/20 03:06:10;;;;;;;53.65;24.58;;;;;;;-2.34;100.00;102707.56;5092565;28;20028;-77
2024/01/20 03:08:36;;;;;;;49.65;25.88;;;;;;;-2.33;100.00;102704.97;5092211;28;20058;-78
2024/01/20 03:11:01;;;;;;;51.40;25.58;;;;;;;-2.33;100.00;102704.06;5092625;28;20069;-78
2024/01/20 03:13:26;;;;;;;60.30;25.70;;;;;;;-2.36;100.00;102702.38;5091785;28;20028;-78
2024/01/20 03:15:52;;;;;;;53.00;24.42;;;;;;;-2.39;100.00;102702.41;5092083;28;20453;-78
2024/01/20 03:18:17;;;;;;;52.00;25.45;;;;;;;-2.42;100.00;102704.13;5092451;28;20077;-77
2024/01/20 03:20:43;;;;;;;53.55;26.05;;;;;;;-2.44;100.00;102701.53;5092306;28;20101;-77
2024/01/20 03:23:08;;;;;;;58.10;25.85;;;;;;;-2.41;100.00;102705.88;5092498;28;20105;-78
2024/01/20 03:25:33;;;;;;;47.20;23.80;;;;;;;-2.43;100.00;102702.41;5092637;28;20039;-78
2024/01/20 03:27:59;;;;;;;47.05;23.17;;;;;;;-2.44;100.00;102698.06;5091986;28;20074;-76
2024/01/20 03:30:24;;;;;;;47.05;23.17;;;;;;;-2.44;100.00;102690.25;5073907;28;20028;-77
2024/01/20 03:32:50;;;;;;;49.72;23.90;;;;;;;-2.46;100.00;102705.03;5092090;28;20432;-77
2024/01/20 03:35:16;;;;;;;45.05;23.30;;;;;;;-2.51;100.00;102715.47;5074086;28;20158;-77
2024/01/20 03:37:41;;;;;;;54.97;24.45;;;;;;;-2.52;100.00;102713.78;5092055;28;20052;-76
2024/01/20 03:40:07;;;;;;;53.45;24.02;;;;;;;-2.50;100.00;102710.25;5091658;28;20046;-77
2024/01/20 03:42:33;;;;;;;53.47;23.45;;;;;;;-2.52;100.00;102712.03;5091801;28;20028;-77
2024/01/20 03:44:58;;;;;;;54.45;22.83;;;;;;;-2.47;100.00;102716.34;5091573;28;20036;-79
2024/01/20 03:47:23;;;;;;;47.78;24.35;;;;;;;-2.46;100.00;102710.25;5091775;28;20024;-78
2024/01/20 03:49:49;;;;;;;46.47;22.83;;;;;;;-2.48;100.00;102720.69;5092065;28;20032;-78
2024/01/20 03:52:14;;;;;;;42.53;22.10;;;;;;;-2.54;100.00;102710.28;5092371;28;20043;-78
2024/01/20 03:54:39;;;;;;;49.40;22.25;;;;;;;-2.64;100.00;102719.03;5091741;28;20040;-78
2024/01/20 03:57:05;;;;;;;46.75;22.45;;;;;;;-2.73;100.00;102717.34;5091660;28;20112;-78
2024/01/20 03:59:31;;;;;;;45.20;22.23;;;;;;;-2.79;100.00;102722.56;5091894;28;20024;-78
2024/01/20 04:01:56;;;;;;;42.60;22.02;;;;;;;-2.91;100.00;102718.28;5091362;28;20077;-80
2024/01/20 04:04:21;;;;;;;46.47;22.00;;;;;;;-2.97;100.00;102719.19;5091848;28;20375;-78
2024/01/20 04:06:47;;;;;;;46.67;21.95;;;;;;;-3.01;100.00;102725.28;5091916;28;20082;-79
2024/01/20 04:09:12;;;;;;;53.30;23.92;;;;;;;-3.01;100.00;102727.88;5092382;28;20086;-77
2024/01/20 04:11:37;;;;;;;49.78;23.27;;;;;;;-3.01;100.00;102727.88;5091792;28;20036;-78
2024/01/20 04:14:03;;;;;;;49.47;22.88;;;;;;;-3.03;100.00;102719.19;5091812;28;20024;-78
2024/01/20 04:16:30;;;;;;;48.92;22.33;;;;;;;-3.04;100.00;102714.88;5091571;28;20453;-78
2024/01/20 04:18:55;;;;;;;51.92;23.52;;;;;;;-3.03;100.00;102717.47;5074163;28;20468;-78
2024/01/20 04:21:22;;;;;;;49.88;23.33;;;;;;;-2.98;100.00;102717.47;5091679;28;20136;-77
2024/01/20 04:23:49;;;;;;;51.78;24.50;;;;;;;-3.00;100.00;102716.59;5091788;28;20049;-80
2024/01/20 04:26:15;;;;;;;48.85;23.00;;;;;;;-3.02;100.00;102720.94;5093334;28;20337;-78
2024/01/20 04:28:40;;;;;;;49.70;23.27;;;;;;;-3.03;100.00;102717.47;5095801;28;20059;-78
2024/01/20 04:31:06;;;;;;;50.15;24.05;;;;;;;-3.01;100.00;102720.94;5095493;28;20050;-78
2024/01/20 04:33:31;;;;;;;48.55;22.63;;;;;;;-3.04;100.00;102720.09;5095778;28;20173;-78
2024/01/20 04:35:56;;;;;;;50.38;24.42;;;;;;;-3.05;100.00;102723.56;5095444;28;20059;-78
2024/01/20 04:38:22;;;;;;;47.53;23.08;;;;;;;-3.08;100.00;102727.03;5077119;28;20166;-78
2024/01/20 04:40:47;;;;;;;63.42;24.10;;;;;;;-3.11;100.00;102724.44;5095223;28;20111;-78
2024/01/20 04:43:13;;;;;;;50.85;23.88;;;;;;;-3.16;100.00;102721.00;5095204;28;20035;-79
2024/01/20 04:45:38;;;;;;;52.05;21.58;;;;;;;-3.21;100.00;102723.63;5095290;28;20445;-78
2024/01/20 04:48:04;;;;;;;46.20;22.17;;;;;;;-3.21;100.00;102721.00;5095510;28;20024;-79
2024/01/20 04:50:29;;;;;;;55.17;24.73;;;;;;;-3.25;100.00;102724.47;5094888;28;20028;-78
2024/01/20 04:52:55;;;;;;;48.20;23.17;;;;;;;-3.25;100.00;102734.03;5077352;28;20451;-78
2024/01/20 04:55:20;;;;;;;48.38;23.52;;;;;;;-3.24;100.00;102739.25;5094305;28;20372;-78
2024/01/20 04:57:45;;;;;;;59.47;24.30;;;;;;;-3.25;100.00;102737.50;5094566;28;20048;-78
2024/01/20 05:00:11;;;;;;;49.88;22.73;;;;;;;-3.27;100.00;102728.84;5095091;28;20028;-78
2024/01/20 05:02:37;;;;;;;49.60;24.05;;;;;;;-3.25;100.00;102742.72;5076273;28;20173;-78
2024/01/20 05:05:03;;;;;;;50.05;24.33;;;;;;;-3.19;100.00;102737.47;5094742;28;20055;-78
2024/01/20 05:07:29;;;;;;;48.55;24.05;;;;;;;-3.21;100.00;102738.34;5094483;28;20028;-78
2024/01/20 05:09:54;;;;;;;48.78;23.85;;;;;;;-3.24;100.00;102746.16;5095025;28;20408;-78
2024/01/20 05:12:19;;;;;;;51.97;24.92;;;;;;;-3.25;100.00;102754.88;5094528;28;20032;-78
2024/01/20 05:14:45;;;;;;;53.83;24.17;;;;;;;-3.28;100.00;102753.13;5093404;28;20464;-79
2024/01/20 05:17:10;;;;;;;50.28;25.70;;;;;;;-3.28;100.00;102749.69;5094395;28;20028;-79
2024/01/20 05:19:39;;;;;;;50.03;23.08;;;;;;;-3.25;100.00;102757.47;5075880;28;20028;-78
2024/01/20 05:22:05;;;;;;;53.72;23.98;;;;;;;-3.26;100.00;102753.13;5094251;28;20475;-78
2024/01/20 05:24:30;;;;;;;50.95;22.88;;;;;;;-3.29;100.00;102755.75;5094265;28;20047;-80
2024/01/20 05:26:55;;;;;;;45.20;23.20;;;;;;;-3.26;100.00;102754.00;5076537;28;20115;-77
2024/01/20 05:29:21;;;;;;;52.53;24.15;;;;;;;-3.25;100.00;102755.72;5075682;28;20024;-77
2024/01/20 05:31:46;;;;;;;53.88;23.70;;;;;;;-3.24;100.00;102748.78;5093715;28;20078;-77
2024/01/20 05:34:12;;;;;;;55.58;22.88;;;;;;;-3.23;100.00;102751.38;5075555;28;20028;-77
2024/01/20 05:36:37;;;;;;;51.65;22.98;;;;;;;-3.14;100.00;102760.06;5075100;28;20032;-77
2024/01/20 05:39:03;;;;;;;47.25;23.42;;;;;;;-3.16;100.00;102754.84;5094141;28;20377;-77
2024/01/20 05:41:28;;;;;;;58.80;23.50;;;;;;;-3.14;100.00;102760.91;5075546;28;20028;-77
2024/01/20 05:43:54;;;;;;;51.97;23.27;;;;;;;-3.15;100.00;102772.22;5075263;28;20081;-77
2024/01/20 05:46:20;;;;;;;50.40;21.77;;;;;;;-3.10;100.00;102775.66;5093645;28;20024;-77
2024/01/20 05:48:48;;;;;;;47.30;22.33;;;;;;;-3.14;100.00;102778.28;5094234;28;20028;-78
2024/01/20 05:51:13;;;;;;;46.35;22.05;;;;;;;-3.19;100.00;102766.13;5059865;28;20081;-78
2024/01/20 05:53:39;;;;;;;49.90;21.65;;;;;;;-3.20;100.00;102763.53;5093963;28;20111;-77
2024/01/20 05:56:05;;;;;;;50.72;20.65;;;;;;;-3.19;100.00;102784.34;5094316;28;20044;-77
2024/01/20 05:58:30;;;;;;;46.42;20.20;;;;;;;-3.20;100.00;102769.59;5093416;28;20480;-78
2024/01/20 06:00:56;;;;;;;46.28;21.20;;;;;;;-3.21;100.00;102778.28;5094158;28;20032;-77
2024/01/20 06:03:22;;;;;;;48.88;19.52;;;;;;;-3.24;100.00;102788.72;5094058;28;20036;-78
2024/01/20 06:05:48;;;;;;;47.58;20.13;;;;;;;-3.24;100.00;102775.69;5094302;28;20375;-79
2024/01/20 06:08:13;;;;;;;46.75;19.85;;;;;;;-3.26;100.00;102785.22;5093467;28;20020;-78
2024/01/20 06:10:39;;;;;;;39.55;18.83;;;;;;;-3.28;100.00;102786.13;5093430;28;20082;-79
2024/01/20 06:13:04;;;;;;;57.97;22.00;;;;;;;-3.30;100.00;102782.63;5075614;28;20468;-77
2024/01/20 06:15:29;;;;;;;53.03;21.33;;;;;;;-3.32;100.00;102777.44;5093217;28;20031;-78
2024/01/20 06:17:55;;;;;;;49.20;20.95;;;;;;;-3.29;100.00;102776.56;5093170;28;20075;-78
2024/01/20 06:20:20;;;;;;;48.80;19.10;;;;;;;-3.30;100.00;102777.44;5093336;28;20031;-77
2024/01/20 06:22:46;;;;;;;45.03;19.13;;;;;;;-3.29;100.00;102768.75;5093201;28;20028;-78
2024/01/20 06:25:13;;;;;;;46.83;20.13;;;;;;;-3.26;100.00;102780.03;5093349;28;20035;-78
2024/01/20 06:27:38;;;;;;;53.45;19.92;;;;;;;-3.24;100.00;102774.81;5075591;28;20035;-78
2024/01/20 06:30:04;;;;;;;44.63;18.27;;;;;;;-3.25;100.00;102776.56;5075128;28;20301;-78
2024/01/20 06:32:29;;;;;;;44.55;18.73;;;;;;;-3.20;100.00;102767.00;5074456;28;20057;-78
2024/01/20 06:34:55;;;;;;;51.13;18.83;;;;;;;-3.19;100.00;102780.91;5075204;28;20035;-78
2024/01/20 06:37:20;;;;;;;41.92;17.83;;;;;;;-3.19;100.00;102776.53;5093246;28;20045;-79
2024/01/20 06:39:46;;;;;;;39.75;18.83;;;;;;;-3.20;100.00;102771.34;5092736;28;20039;-79
2024/01/20 06:42:12;;;;;;;45.78;18.15;;;;;;;-3.21;100.00;102786.09;5093206;28;20039;-79
2024/01/20 06:44:38;;;;;;;43.08;18.40;;;;;;;-3.24;100.00;102788.72;5092859;28;20055;-77
2024/01/20 06:47:07;;;;;;;42.38;18.30;;;;;;;-3.25;100.00;102788.72;5092566;28;20070;-78
2024/01/20 06:49:32;;;;;;;38.88;18.20;;;;;;;-3.21;100.00;102791.31;5091704;28;20440;-77
2024/01/20 06:51:58;;;;;;;40.33;17.95;;;;;;;-3.22;100.00;102809.56;5092935;28;20154;-80
2024/01/20 06:54:23;;;;;;;49.85;18.90;;;;;;;-3.23;100.00;102803.44;5092261;28;20028;-78
2024/01/20 06:56:49;;;;;;;42.08;16.63;;;;;;;-3.21;100.00;102801.72;5092877;28;20132;-78
2024/01/20 06:59:14;;;;;;;52.40;18.80;;;;;;;-3.19;100.00;102804.34;5092629;28;20040;-77
2024/01/20 07:01:39;;;;;;;47.63;18.92;;;;;;;-3.20;100.00;102805.19;5092431;28;20023;-78
2024/01/20 07:04:05;;;;;;;40.40;17.15;;;;;;;-3.22;100.00;102797.38;5092553;28;20415;-77
2024/01/20 07:06:30;;;;;;;40.72;17.33;;;;;;;-3.22;100.00;102801.75;5092492;28;20034;-78
2024/01/20 07:08:55;;;;;;;45.58;17.65;;;;;;;-3.23;100.00;102807.81;5092229;28;20036;-78
2024/01/20 07:11:21;;;;;;;40.95;17.35;;;;;;;-3.21;100.00;102804.34;5092357;28;20366;-78
2024/01/20 07:13:46;;;;;;;44.70;17.60;;;;;;;-3.20;100.00;102800.00;5073862;28;20040;-78
2024/01/20 07:16:13;;;;;;;51.92;19.35;;;;;;;-3.19;100.00;102812.16;5092330;28;20039;-78
2024/01/20 07:18:39;;;;;;;47.40;16.92;;;;;;;-3.20;100.00;102811.25;5092213;28;20062;-78
2024/01/20 07:21:05;;;;;;;45.17;17.45;;;;;;;-3.20;100.00;102808.66;5091922;28;20316;-78
2024/01/20 07:23:31;;;;;;;40.28;17.55;;;;;;;-3.14;100.00;102812.13;5091736;28;20024;-78
2024/01/20 07:26:00;;;;;;;47.80;18.60;;;;;;;-3.09;100.00;102816.47;5073911;28;20031;-78
2024/01/20 07:28:27;;;;;;;37.90;15.90;;;;;;;-3.02;100.00;102819.91;5092060;28;20443;-78
2024/01/20 07:30:52;;;;;;;40.75;17.10;;;;;;;-2.94;100.00;102814.69;5091849;28;20063;-79
2024/01/20 07:33:18;;;;;;;40.75;18.13;;;;;;;-2.90;100.00;102808.59;5092113;28;20165;-78
2024/01/20 07:35:43;;;;;;;38.42;18.20;;;;;;;-2.84;100.00;102805.97;5091470;28;20027;-78
2024/01/20 07:38:09;;;;;;;44.67;17.02;;;;;;;-2.79;100.00;102803.34;5091715;28;20116;-78
2024/01/20 07:40:34;;;;;;;42.28;17.42;;;;;;;-2.75;100.00;102802.47;5091453;28;20564;-77
2024/01/20 07:42:59;;;;;;;44.80;17.25;;;;;;;-2.72;100.00;102802.47;5073790;28;20043;-77
2024/01/20 07:45:28;;;;;;;43.60;17.00;;;;;;;-2.69;100.00;102802.44;5091437;28;20177;-79
2024/01/20 07:47:53;;;;;;;43.17;17.60;;;;;;;-2.64;100.00;102802.44;5091604;28;20028;-80
2024/01/20 07:50:18;;;;;;;39.40;16.33;;;;;;;-2.61;100.00;102808.53;5091804;28;20109;-77
2024/01/20 07:52:44;;;;;;;37.35;17.30;;;;;;;-2.61;100.00;102807.63;5091471;28;20063;-80
2024/01/20 07:55:09;;;;;;;42.08;16.65;;;;;;;-2.61;100.00;102811.13;5091033;28;20136;-79
2024/01/20 07:57:34;;;;;;;38.28;16.30;;;;;;;-2.63;100.00;102812.84;5091796;28;20456;-78
2024/01/20 08:00:00;;;;;;;35.75;15.65;;;;;;;-2.63;100.00;102822.41;5073710;28;20074;-79
2024/01/20 08:02:25;;;;;;;40.28;16.38;;;;;;;-2.65;100.00;102817.22;5075745;28;20487;-79
2024/01/20 08:04:51;;;;;;;32.80;14.57;;;;;;;-2.64;100.00;102813.75;5095259;28;20024;-82
2024/01/20 08:07:16;;;;;;;38.88;16.98;;;;;;;-2.66;100.00;102828.50;5077866;28;20028;-82
2024/01/20 08:09:41;;;;;;;39.55;16.73;;;;;;;-2.70;100.00;102830.25;5094334;28;20024;-81
2024/01/20 08:12:07;;;;;;;41.78;16.00;;;;;;;-2.71;100.00;102831.13;5077188;28;20375;-81
2024/01/20 08:14:32;;;;;;;39.17;15.30;;;;;;;-2.68;100.00;102832.88;5076235;28;20039;-79
2024/01/20 08:16:58;;;;;;;52.72;17.02;;;;;;;-2.66;100.00;102838.94;5095345;28;20057;-79
2024/01/20 08:19:23;;;;;;;40.88;16.73;;;;;;;-2.62;100.00;102842.41;5095420;28;20035;-80
2024/01/20 08:21:48;;;;;;;43.85;17.33;;;;;;;-2.63;100.00;102851.94;5077132;28;20024;-81
2024/01/20 08:24:14;;;;;;;36.47;15.52;;;;;;;-2.60;100.00;102853.69;5095185;28;20028;-81
2024/01/20 08:26:39;;;;;;;39.45;15.77;;;;;;;-2.61;100.00;102850.22;5095133;28;20038;-78
2024/01/20 08:29:04;;;;;;;37.40;16.00;;;;;;;-2.58;100.00;102858.03;5099117;28;20039;-76
2024/01/20 08:31:30;;;;;;;34.55;16.42;;;;;;;-2.55;100.00;102860.63;5098927;28;20051;-80
2024/01/20 08:33:55;;;;;;;37.67;17.58;;;;;;;-2.52;100.00;102864.97;5100439;28;20032;-80
2024/01/20 08:36:21;;;;;;;35.72;16.35;;;;;;;-2.49;100.00;102867.56;5099060;28;20335;-81
2024/01/20 08:38:47;;;;;;;32.47;15.38;;;;;;;-2.47;100.00;102870.16;5096963;28;20114;-80
2024/01/20 08:41:13;;;;;;;36.42;16.23;;;;;;;-2.42;100.00;102861.44;5097215;28;20076;-79
2024/01/20 08:43:43;;;;;;;36.95;16.92;;;;;;;-2.34;100.00;102864.88;5080287;28;20465;-78
2024/01/20 08:46:08;;;;;;;36.90;17.17;;;;;;;-2.24;100.00;102870.06;5099053;28;20047;-79
2024/01/20 08:48:34;;;;;;;36.05;15.43;;;;;;;-2.16;100.00;102868.31;5096995;28;20020;-79
2024/01/20 08:51:00;;;;;;;35.35;16.50;;;;;;;-2.10;100.00;102877.84;5078082;28;20058;-80
2024/01/20 08:53:28;;;;;;;37.92;16.17;;;;;;;-2.07;100.00;102870.84;5095327;28;20028;-79
2024/01/20 08:55:53;;;;;;;34.83;16.02;;;;;;;-2.06;100.00;102871.72;5076680;28;20131;-80
2024/01/20 08:58:18;;;;;;;34.88;16.63;;;;;;;-1.98;100.00;102860.38;5076782;28;20047;-80
2024/01/20 09:00:44;;;;;;;34.30;15.52;;;;;;;-1.96;100.00;102862.97;5060372;28;20089;-80
2024/01/20 09:03:09;;;;;;;35.08;14.95;;;;;;;-1.93;100.00;102862.94;5095055;28;20464;-81
2024/01/20 09:05:35;;;;;;;35.88;17.08;;;;;;;-1.86;100.00;102872.47;5060036;28;20073;-80
2024/01/20 09:08:00;;;;;;;36.70;16.45;;;;;;;-1.82;100.00;102868.97;5094720;28;20021;-81
2024/01/20 09:10:26;;;;;;;42.28;16.92;;;;;;;-1.73;100.00;102869.78;5094970;28;20024;-80
2024/01/20 09:12:51;;;;;;;42.55;15.75;;;;;;;-1.66;100.00;102861.88;5093636;28;20362;-81
2024/01/20 09:15:17;;;;;;;34.55;16.50;;;;;;;-1.59;100.00;102867.94;5095727;28;20468;-80
2024/01/20 09:17:42;;;;;;;34.53;15.52;;;;;;;-1.52;100.00;102872.25;5095664;28;20035;-79
2024/01/20 09:20:08;;;;;;;32.83;15.70;;;;;;;-1.39;100.00;102875.63;5095529;28;20027;-81
2024/01/20 09:22:34;;;;;;;33.70;15.32;;;;;;;-1.26;100.00;102876.41;5077481;28;20028;-81
2024/01/20 09:25:01;;;;;;;29.70;14.85;;;;;;;-1.12;100.00;102877.16;5094892;28;20320;-80
2024/01/20 09:27:27;;;;;;;30.45;16.15;;;;;;;-0.97;100.00;102881.38;5095223;28;20452;-80
2024/01/20 09:29:53;;;;;;;29.33;15.13;;;;;;;-0.81;100.00;102876.00;5094403;28;20107;-80
2024/01/20 09:32:19;;;;;;;35.28;14.27;;;;;;;-0.66;100.00;102867.13;5094416;28;20089;-80
2024/01/20 09:34:45;;;;;;;27.52;13.75;;;;;;;-0.59;100.00;102876.63;5094332;28;20035;-80
2024/01/20 09:37:10;;;;;;;30.20;14.10;;;;;;;-0.51;100.00;102869.56;5075921;28;20028;-80
2024/01/20 09:39:35;;;;;;;26.15;13.07;;;;;;;-0.58;100.00;102871.38;5094391;28;20024;-83
2024/01/20 09:42:02;;;;;;;29.05;12.48;;;;;;;-0.57;100.00;102857.44;5093981;28;20432;-84
2024/01/20 09:44:28;;;;;;;25.40;13.20;;;;;;;-0.60;100.00;102862.69;5095386;28;20062;-82
2024/01/20 09:46:53;;;;;;;25.30;11.63;;;;;;;-0.57;100.00;102861.78;5076165;28;20032;-80
2024/01/20 09:49:18;;;;;;;24.42;12.63;;;;;;;-0.56;100.00;102866.13;5094482;28;20055;-81
2024/01/20 09:51:50;;;;;;;26.13;11.38;;;;;;;-0.51;100.00;102864.31;5093788;28;20035;-80
2024/01/20 09:54:18;;;;;;;24.17;11.73;;;;;;;-0.48;100.00;102861.66;5094034;28;20396;-80
2024/01/20 09:56:43;;;;;;;21.02;10.50;;;;;;;-0.40;100.00;102870.31;5093645;28;20127;-80
2024/01/20 09:59:11;;;;;;;23.02;11.35;;;;;;;-0.37;100.00;102878.09;5094407;28;20048;-79
2024/01/20 10:01:37;;;;;;;27.98;11.43;;;;;;;-0.28;100.00;102878.91;5094177;28;20024;-80
2024/01/20 10:04:05;;;;;;;22.63;10.73;;;;;;;-0.32;100.00;102878.06;5075984;28;20032;-81
2024/01/20 10:06:31;;;;;;;20.88;11.40;;;;;;;-0.32;100.00;102887.66;5094230;28;20059;-80
2024/01/20 10:08:56;;;;;;;21.00;10.70;;;;;;;-0.32;100.00;102882.44;5076085;28;20118;-79
2024/01/20 10:11:22;;;;;;;19.00;9.82;;;;;;;-0.20;100.00;102888.34;5094556;28;20115;-79
2024/01/20 10:13:48;;;;;;;17.00;9.50;;;;;;;0.01;100.00;102893.34;5093864;28;20038;-79
2024/01/20 10:16:13;;;;;;;19.02;9.77;;;;;;;0.14;100.00;102895.78;5094396;28;20379;-80
2024/01/20 10:18:39;;;;;;;22.23;9.98;;;;;;;0.32;100.00;102891.16;5059379;28;20058;-79
2024/01/20 10:21:05;;;;;;;18.20;9.68;;;;;;;0.40;100.00;102885.81;5094141;28;20024;-80
2024/01/20 10:23:40;;;;;;;17.77;9.40;;;;;;;0.34;100.00;102895.50;5075794;28;20351;-82
2024/01/20 10:26:07;;;;;;;18.23;8.95;;;;;;;0.19;100.00;102892.22;5094183;28;20126;-79
2024/01/20 10:28:33;;;;;;;16.90;9.25;;;;;;;0.18;100.00;102894.00;5094117;28;20024;-80
2024/01/20 10:31:05;;;;;;;17.55;9.00;;;;;;;0.09;100.00;102894.97;5094017;28;20435;-80
2024/01/20 10:33:31;;;;;;;17.85;8.93;;;;;;;0.10;100.00;102890.59;5094086;28;20035;-79
2024/01/20 10:35:59;;;;;;;14.07;8.90;;;;;;;0.14;100.00;102889.69;5075064;28;20364;-80
2024/01/20 10:38:28;;;;;;;17.52;9.63;;;;;;;0.17;100.00;102889.63;5093280;28;20020;-81
2024/01/20 10:40:54;;;;;;;21.17;9.48;;;;;;;0.26;100.00;102893.88;5075120;28;20491;-79
2024/01/20 10:43:20;;;;;;;21.05;9.48;;;;;;;0.36;100.00;102885.00;5093258;28;20024;-79
2024/01/20 10:45:50;;;;;;;23.60;9.75;;;;;;;0.45;100.00;102887.47;5093168;28;20115;-80
2024/01/20 10:48:18;;;;;;;19.75;8.80;;;;;;;0.56;100.00;102881.22;5093709;28;20052;-80
2024/01/20 10:50:53;;;;;;;18.83;9.20;;;;;;;0.66;100.00;102881.03;5075064;28;20058;-82
2024/01/20 10:53:19;;;;;;;16.30;8.52;;;;;;;0.66;100.00;102885.41;5075035;28;20028;-81
2024/01/20 10:55:46;;;;;;;17.63;8.63;;;;;;;0.56;100.00;102878.59;5092474;28;20047;-82